sensor_id;sensor_type;location;lat;lon;timestamp;pressure;altitude;pressure_sealevel;temperature;humidity
68179;BME280;69812;42.632;23.440;2023-09-12T00:00:19;95284.88;;;9.65;83.55
68179;BME280;69812;42.632;23.440;2023-09-12T00:02:44;95278.06;;;9.55;83.78
68179;BME280;69812;42.632;23.440;2023-09-12T00:05:09;95279.63;;;9.46;84.08
68179;BME280;69812;42.632;23.440;2023-09-12T00:07:35;95295.00;;;9.46;84.38
68179;BME280;69812;42.632;23.440;2023-09-12T00:10:02;95296.38;;;9.50;85.17
68179;BME280;69812;42.632;23.440;2023-09-12T00:12:29;95298.03;;;9.40;84.53
68179;BME280;69812;42.632;23.440;2023-09-12T00:14:55;95297.00;;;9.31;84.81
68179;BME280;69812;42.632;23.440;2023-09-12T00:17:20;95282.38;;;9.22;85.34
68179;BME280;69812;42.632;23.440;2023-09-12T00:19:46;95287.69;;;9.30;85.40
68179;BME280;69812;42.632;23.440;2023-09-12T00:22:11;95292.63;;;9.22;85.77
68179;BME280;69812;42.632;23.440;2023-09-12T00:24:36;95289.03;;;9.13;85.53
68179;BME280;69812;42.632;23.440;2023-09-12T00:27:05;95292.78;;;9.09;85.89
68179;BME280;69812;42.632;23.440;2023-09-12T00:29:31;95295.19;;;9.11;86.15
68179;BME280;69812;42.632;23.440;2023-09-12T00:31:57;95290.69;;;9.03;86.02
68179;BME280;69812;42.632;23.440;2023-09-12T00:34:22;95295.44;;;9.08;86.11
68179;BME280;69812;42.632;23.440;2023-09-12T00:36:47;95300.34;;;8.99;86.08
68179;BME280;69812;42.632;23.440;2023-09-12T00:39:13;95291.63;;;8.91;86.21
68179;BME280;69812;42.632;23.440;2023-09-12T00:41:38;95294.09;;;8.81;86.63
68179;BME280;69812;42.632;23.440;2023-09-12T00:44:04;95301.88;;;8.91;86.87
68179;BME280;69812;42.632;23.440;2023-09-12T00:46:29;95297.69;;;8.90;87.16
68179;BME280;69812;42.632;23.440;2023-09-12T00:48:57;95309.91;;;8.86;87.14
68179;BME280;69812;42.632;23.440;2023-09-12T00:51:24;95312.34;;;8.88;87.25
68179;BME280;69812;42.632;23.440;2023-09-12T00:53:50;95308.16;;;8.87;87.12
68179;BME280;69812;42.632;23.440;2023-09-12T00:56:16;95293.75;;;8.74;87.24
68179;BME280;69812;42.632;23.440;2023-09-12T00:58:41;95298.53;;;8.68;87.49
68179;BME280;69812;42.632;23.440;2023-09-12T01:01:07;95306.41;;;8.76;87.45
68179;BME280;69812;42.632;23.440;2023-09-12T01:03:32;95307.47;;;8.73;88.01
68179;BME280;69812;42.632;23.440;2023-09-12T01:05:59;95301.56;;;8.73;88.49
68179;BME280;69812;42.632;23.440;2023-09-12T01:08:25;95320.13;;;8.97;88.21
68179;BME280;69812;42.632;23.440;2023-09-12T01:10:52;95312.47;;;8.86;87.77
68179;BME280;69812;42.632;23.440;2023-09-12T01:13:21;95319.91;;;8.78;87.58
68179;BME280;69812;42.632;23.440;2023-09-12T01:15:46;95324.00;;;8.69;87.76
68179;BME280;69812;42.632;23.440;2023-09-12T01:18:12;95321.91;;;8.52;87.77
68179;BME280;69812;42.632;23.440;2023-09-12T01:20:39;95319.47;;;8.61;87.95
68179;BME280;69812;42.632;23.440;2023-09-12T01:23:28;95316.69;;;8.53;87.70
68179;BME280;69812;42.632;23.440;2023-09-12T01:29:09;95325.25;;;8.41;88.05
68179;BME280;69812;42.632;23.440;2023-09-12T01:31:38;95324.53;;;8.39;87.97
68179;BME280;69812;42.632;23.440;2023-09-12T01:34:08;95330.28;;;8.42;87.87
68179;BME280;69812;42.632;23.440;2023-09-12T01:36:33;95332.00;;;8.31;87.66
68179;BME280;69812;42.632;23.440;2023-09-12T01:38:59;95328.38;;;8.22;87.92
68179;BME280;69812;42.632;23.440;2023-09-12T01:41:25;95326.63;;;8.22;88.39
68179;BME280;69812;42.632;23.440;2023-09-12T01:43:52;95327.06;;;8.16;88.26
68179;BME280;69812;42.632;23.440;2023-09-12T01:46:22;95333.00;;;8.17;88.67
68179;BME280;69812;42.632;23.440;2023-09-12T01:48:49;95327.19;;;8.15;88.58
68179;BME280;69812;42.632;23.440;2023-09-12T01:51:18;95325.78;;;8.11;88.19
68179;BME280;69812;42.632;23.440;2023-09-12T01:53:45;95336.16;;;8.20;88.58
68179;BME280;69812;42.632;23.440;2023-09-12T01:56:12;95330.53;;;8.15;88.30
68179;BME280;69812;42.632;23.440;2023-09-12T01:58:40;95335.78;;;8.14;88.45
68179;BME280;69812;42.632;23.440;2023-09-12T02:01:05;95334.22;;;8.00;88.92
68179;BME280;69812;42.632;23.440;2023-09-12T02:03:31;95345.22;;;8.13;88.92
68179;BME280;69812;42.632;23.440;2023-09-12T02:05:59;95332.97;;;8.06;89.21
68179;BME280;69812;42.632;23.440;2023-09-12T02:08:25;95346.34;;;8.09;89.78
68179;BME280;69812;42.632;23.440;2023-09-12T02:10:53;95334.72;;;8.05;90.55
68179;BME280;69812;42.632;23.440;2023-09-12T02:13:18;95331.94;;;8.19;90.47
68179;BME280;69812;42.632;23.440;2023-09-12T02:15:44;95347.31;;;8.31;90.48
68179;BME280;69812;42.632;23.440;2023-09-12T02:18:09;95332.78;;;8.31;90.14
68179;BME280;69812;42.632;23.440;2023-09-12T02:20:38;95337.66;;;8.23;90.10
68179;BME280;69812;42.632;23.440;2023-09-12T02:23:04;95344.56;;;8.45;90.45
68179;BME280;69812;42.632;23.440;2023-09-12T02:25:29;95343.91;;;8.77;89.58
68179;BME280;69812;42.632;23.440;2023-09-12T02:27:54;95339.81;;;8.86;88.52
68179;BME280;69812;42.632;23.440;2023-09-12T02:30:20;95345.97;;;8.72;88.51
68179;BME280;69812;42.632;23.440;2023-09-12T02:32:45;95342.34;;;8.63;87.99
68179;BME280;69812;42.632;23.440;2023-09-12T02:35:11;95347.03;;;8.58;88.13
68179;BME280;69812;42.632;23.440;2023-09-12T02:37:36;95340.84;;;8.49;87.45
68179;BME280;69812;42.632;23.440;2023-09-12T02:40:02;95344.00;;;8.41;87.68
68179;BME280;69812;42.632;23.440;2023-09-12T02:42:30;95333.50;;;8.22;88.16
68179;BME280;69812;42.632;23.440;2023-09-12T02:44:55;95337.91;;;8.31;88.39
68179;BME280;69812;42.632;23.440;2023-09-12T02:47:21;95352.09;;;8.24;88.00
68179;BME280;69812;42.632;23.440;2023-09-12T02:49:46;95349.97;;;8.18;88.26
68179;BME280;69812;42.632;23.440;2023-09-12T02:52:11;95337.75;;;8.10;88.63
68179;BME280;69812;42.632;23.440;2023-09-12T02:54:37;95345.41;;;8.10;88.54
68179;BME280;69812;42.632;23.440;2023-09-12T02:57:05;95343.44;;;8.02;88.82
68179;BME280;69812;42.632;23.440;2023-09-12T02:59:30;95347.88;;;8.12;88.71
68179;BME280;69812;42.632;23.440;2023-09-12T03:01:56;95349.25;;;8.05;88.64
68179;BME280;69812;42.632;23.440;2023-09-12T03:04:24;95346.44;;;7.96;88.93
68179;BME280;69812;42.632;23.440;2023-09-12T03:06:53;95350.41;;;8.00;89.20
68179;BME280;69812;42.632;23.440;2023-09-12T03:09:20;95342.81;;;7.88;89.37
68179;BME280;69812;42.632;23.440;2023-09-12T03:11:48;95350.09;;;7.81;89.57
68179;BME280;69812;42.632;23.440;2023-09-12T03:14:14;95350.91;;;7.81;89.71
68179;BME280;69812;42.632;23.440;2023-09-12T03:16:39;95353.81;;;7.77;89.56
68179;BME280;69812;42.632;23.440;2023-09-12T03:19:05;95341.63;;;7.56;89.27
68179;BME280;69812;42.632;23.440;2023-09-12T03:21:30;95350.72;;;7.60;89.33
68179;BME280;69812;42.632;23.440;2023-09-12T03:23:56;95355.25;;;7.57;89.33
68179;BME280;69812;42.632;23.440;2023-09-12T03:26:21;95347.31;;;7.49;89.99
68179;BME280;69812;42.632;23.440;2023-09-12T03:28:56;95353.94;;;7.51;90.18
68179;BME280;69812;42.632;23.440;2023-09-12T03:31:24;95356.25;;;7.54;89.72
68179;BME280;69812;42.632;23.440;2023-09-12T03:33:50;95351.47;;;7.50;90.11
68179;BME280;69812;42.632;23.440;2023-09-12T03:36:16;95357.91;;;7.55;90.15
68179;BME280;69812;42.632;23.440;2023-09-12T03:38:42;95350.66;;;7.49;89.70
68179;BME280;69812;42.632;23.440;2023-09-12T03:41:10;95358.81;;;7.54;89.75
68179;BME280;69812;42.632;23.440;2023-09-12T03:43:36;95341.91;;;7.40;89.81
68179;BME280;69812;42.632;23.440;2023-09-12T03:46:01;95372.72;;;7.50;90.20
68179;BME280;69812;42.632;23.440;2023-09-12T03:48:29;95367.88;;;7.58;90.31
68179;BME280;69812;42.632;23.440;2023-09-12T03:50:58;95364.78;;;7.66;90.23
68179;BME280;69812;42.632;23.440;2023-09-12T03:53:23;95363.28;;;7.64;90.60
68179;BME280;69812;42.632;23.440;2023-09-12T03:55:48;95364.19;;;7.63;90.79
68179;BME280;69812;42.632;23.440;2023-09-12T03:58:14;95373.28;;;7.67;91.15
68179;BME280;69812;42.632;23.440;2023-09-12T04:00:39;95372.03;;;7.72;90.92
68179;BME280;69812;42.632;23.440;2023-09-12T04:03:05;95371.66;;;7.66;90.79
68179;BME280;69812;42.632;23.440;2023-09-12T04:05:30;95360.59;;;7.65;90.55
68179;BME280;69812;42.632;23.440;2023-09-12T04:07:56;95375.50;;;7.71;90.47
68179;BME280;69812;42.632;23.440;2023-09-12T04:10:21;95374.13;;;7.78;90.35
68179;BME280;69812;42.632;23.440;2023-09-12T04:12:46;95372.78;;;7.86;89.64
68179;BME280;69812;42.632;23.440;2023-09-12T04:15:12;95371.03;;;7.86;89.24
68179;BME280;69812;42.632;23.440;2023-09-12T04:17:37;95367.09;;;7.93;89.03
68179;BME280;69812;42.632;23.440;2023-09-12T04:20:03;95372.69;;;7.98;89.07
68179;BME280;69812;42.632;23.440;2023-09-12T04:22:32;95377.06;;;8.32;89.84
68179;BME280;69812;42.632;23.440;2023-09-12T04:24:58;95365.47;;;9.29;88.46
68179;BME280;69812;42.632;23.440;2023-09-12T04:27:23;95369.47;;;10.61;83.19
68179;BME280;69812;42.632;23.440;2023-09-12T04:29:48;95376.81;;;11.85;79.19
68179;BME280;69812;42.632;23.440;2023-09-12T04:32:14;95375.00;;;13.01;71.98
68179;BME280;69812;42.632;23.440;2023-09-12T04:34:42;95369.81;;;13.84;67.67
68179;BME280;69812;42.632;23.440;2023-09-12T04:37:08;95371.25;;;14.67;63.62
68179;BME280;69812;42.632;23.440;2023-09-12T04:39:36;95362.44;;;15.71;59.08
68179;BME280;69812;42.632;23.440;2023-09-12T04:42:02;95383.69;;;16.81;54.85
68179;BME280;69812;42.632;23.440;2023-09-12T04:44:34;95373.19;;;17.84;51.05
68179;BME280;69812;42.632;23.440;2023-09-12T04:47:00;95369.19;;;18.81;47.91
68179;BME280;69812;42.632;23.440;2023-09-12T04:49:28;95376.47;;;19.66;45.34
68179;BME280;69812;42.632;23.440;2023-09-12T04:51:53;95378.44;;;20.65;43.36
68179;BME280;69812;42.632;23.440;2023-09-12T04:54:19;95380.72;;;21.45;40.11
68179;BME280;69812;42.632;23.440;2023-09-12T04:56:49;95373.84;;;22.12;38.71
68179;BME280;69812;42.632;23.440;2023-09-12T04:59:14;95372.06;;;22.86;36.93
68179;BME280;69812;42.632;23.440;2023-09-12T05:01:39;95375.63;;;23.31;35.53
68179;BME280;69812;42.632;23.440;2023-09-12T05:04:16;95372.38;;;23.88;34.17
68179;BME280;69812;42.632;23.440;2023-09-12T05:06:43;95359.50;;;23.73;35.02
68179;BME280;69812;42.632;23.440;2023-09-12T05:09:09;95381.06;;;23.82;34.65
68179;BME280;69812;42.632;23.440;2023-09-12T05:11:36;95378.88;;;24.10;33.55
68179;BME280;69812;42.632;23.440;2023-09-12T05:14:01;95374.50;;;23.97;34.73
68179;BME280;69812;42.632;23.440;2023-09-12T05:16:29;95383.63;;;24.20;34.55
68179;BME280;69812;42.632;23.440;2023-09-12T05:18:57;95385.59;;;23.48;35.30
68179;BME280;69812;42.632;23.440;2023-09-12T05:21:22;95376.69;;;24.64;33.77
68179;BME280;69812;42.632;23.440;2023-09-12T05:23:47;95382.84;;;25.38;32.30
68179;BME280;69812;42.632;23.440;2023-09-12T05:26:13;95379.78;;;26.20;31.85
68179;BME280;69812;42.632;23.440;2023-09-12T05:28:38;95389.38;;;27.04;30.22
68179;BME280;69812;42.632;23.440;2023-09-12T05:46:24;95388.41;;;31.39;24.09
68179;BME280;69812;42.632;23.440;2023-09-12T05:48:50;95391.56;;;30.56;24.72
68179;BME280;69812;42.632;23.440;2023-09-12T05:51:15;95389.19;;;30.86;24.27
68179;BME280;69812;42.632;23.440;2023-09-12T06:07:52;95395.50;;;33.50;20.78
68179;BME280;69812;42.632;23.440;2023-09-12T06:10:18;95391.63;;;34.36;20.20
68179;BME280;69812;42.632;23.440;2023-09-12T06:12:43;95394.22;;;34.81;19.35
68179;BME280;69812;42.632;23.440;2023-09-12T06:15:09;95388.34;;;35.37;18.78
68179;BME280;69812;42.632;23.440;2023-09-12T06:17:34;95389.53;;;35.93;18.69
68179;BME280;69812;42.632;23.440;2023-09-12T06:20:00;95384.00;;;36.28;18.17
68179;BME280;69812;42.632;23.440;2023-09-12T06:22:25;95390.41;;;35.89;18.38
68179;BME280;69812;42.632;23.440;2023-09-12T06:24:51;95394.63;;;35.47;18.16
68179;BME280;69812;42.632;23.440;2023-09-12T06:27:19;95393.00;;;35.27;18.84
68179;BME280;69812;42.632;23.440;2023-09-12T06:29:48;95403.72;;;34.58;19.35
68179;BME280;69812;42.632;23.440;2023-09-12T06:32:14;95394.50;;;34.80;19.62
68179;BME280;69812;42.632;23.440;2023-09-12T06:34:41;95401.56;;;35.48;19.14
68179;BME280;69812;42.632;23.440;2023-09-12T06:37:06;95396.78;;;35.45;18.98
68179;BME280;69812;42.632;23.440;2023-09-12T06:39:31;95399.88;;;35.04;19.39
68179;BME280;69812;42.632;23.440;2023-09-12T06:41:57;95403.88;;;34.38;20.12
68179;BME280;69812;42.632;23.440;2023-09-12T06:44:22;95401.13;;;33.43;21.05
68179;BME280;69812;42.632;23.440;2023-09-12T06:46:48;95402.38;;;33.71;20.58
68179;BME280;69812;42.632;23.440;2023-09-12T06:49:13;95400.31;;;33.53;20.60
68179;BME280;69812;42.632;23.440;2023-09-12T06:51:40;95406.00;;;33.21;21.18
68179;BME280;69812;42.632;23.440;2023-09-12T06:54:06;95405.13;;;32.07;22.20
68179;BME280;69812;42.632;23.440;2023-09-12T06:56:34;95392.09;;;31.90;23.10
68179;BME280;69812;42.632;23.440;2023-09-12T06:59:03;95394.59;;;32.84;21.63
68179;BME280;69812;42.632;23.440;2023-09-12T07:01:29;95405.84;;;33.56;20.57
68179;BME280;69812;42.632;23.440;2023-09-12T07:03:54;95405.56;;;33.73;20.41
68179;BME280;69812;42.632;23.440;2023-09-12T07:06:21;95412.84;;;34.02;19.99
68179;BME280;69812;42.632;23.440;2023-09-12T07:08:49;95404.91;;;34.42;19.51
68179;BME280;69812;42.632;23.440;2023-09-12T07:11:14;95399.03;;;35.13;18.64
68179;BME280;69812;42.632;23.440;2023-09-12T07:13:40;95404.69;;;35.55;18.30
68179;BME280;69812;42.632;23.440;2023-09-12T07:16:05;95401.22;;;35.78;18.47
68179;BME280;69812;42.632;23.440;2023-09-12T07:18:31;95396.91;;;34.81;18.37
68179;BME280;69812;42.632;23.440;2023-09-12T07:21:00;95406.06;;;34.30;19.01
68179;BME280;69812;42.632;23.440;2023-09-12T07:23:27;95402.75;;;35.36;17.26
68179;BME280;69812;42.632;23.440;2023-09-12T07:25:56;95395.88;;;35.97;16.43
68179;BME280;69812;42.632;23.440;2023-09-12T07:28:29;95397.66;;;35.16;17.15
68179;BME280;69812;42.632;23.440;2023-09-12T07:30:55;95397.66;;;35.16;18.20
68179;BME280;69812;42.632;23.440;2023-09-12T07:33:21;95405.94;;;35.38;17.30
68179;BME280;69812;42.632;23.440;2023-09-12T07:35:50;95403.28;;;36.25;16.71
68179;BME280;69812;42.632;23.440;2023-09-12T07:38:17;95409.72;;;36.75;16.26
68179;BME280;69812;42.632;23.440;2023-09-12T07:40:42;95403.50;;;37.27;16.22
68179;BME280;69812;42.632;23.440;2023-09-12T07:43:09;95392.00;;;37.26;16.51
68179;BME280;69812;42.632;23.440;2023-09-12T07:45:35;95399.31;;;37.07;16.98
68179;BME280;69812;42.632;23.440;2023-09-12T07:48:07;95398.34;;;37.16;16.67
68179;BME280;69812;42.632;23.440;2023-09-12T07:50:33;95392.41;;;36.54;16.33
68179;BME280;69812;42.632;23.440;2023-09-12T07:52:58;95396.56;;;34.09;18.74
68179;BME280;69812;42.632;23.440;2023-09-12T07:55:24;95392.72;;;30.97;22.57
68179;BME280;69812;42.632;23.440;2023-09-12T07:57:49;95391.94;;;28.83;25.03
68179;BME280;69812;42.632;23.440;2023-09-12T08:00:14;95384.91;;;27.40;27.23
68179;BME280;69812;42.632;23.440;2023-09-12T08:02:41;95389.06;;;26.35;28.97
68179;BME280;69812;42.632;23.440;2023-09-12T08:05:07;95384.50;;;25.33;29.54
68179;BME280;69812;42.632;23.440;2023-09-12T08:07:34;95388.09;;;24.19;31.19
68179;BME280;69812;42.632;23.440;2023-09-12T08:10:00;95386.66;;;23.40;32.60
68179;BME280;69812;42.632;23.440;2023-09-12T08:12:27;95389.19;;;22.62;34.17
68179;BME280;69812;42.632;23.440;2023-09-12T08:14:53;95374.44;;;22.07;34.63
68179;BME280;69812;42.632;23.440;2023-09-12T08:17:19;95386.66;;;21.87;34.89
68179;BME280;69812;42.632;23.440;2023-09-12T08:19:45;95392.22;;;21.64;35.22
68179;BME280;69812;42.632;23.440;2023-09-12T08:22:11;95388.25;;;21.81;35.79
68179;BME280;69812;42.632;23.440;2023-09-12T08:24:39;95396.16;;;21.46;35.70
68179;BME280;69812;42.632;23.440;2023-09-12T08:27:05;95387.75;;;21.58;35.23
68179;BME280;69812;42.632;23.440;2023-09-12T08:29:34;95398.41;;;21.49;35.67
68179;BME280;69812;42.632;23.440;2023-09-12T08:32:00;95393.94;;;21.43;35.92
68179;BME280;69812;42.632;23.440;2023-09-12T08:34:26;95378.22;;;21.78;37.04
68179;BME280;69812;42.632;23.440;2023-09-12T08:36:52;95375.44;;;21.93;36.04
68179;BME280;69812;42.632;23.440;2023-09-12T08:39:27;95370.00;;;21.94;35.53
68179;BME280;69812;42.632;23.440;2023-09-12T08:58:26;95349.66;;;21.70;35.57
68179;BME280;69812;42.632;23.440;2023-09-12T09:00:51;95366.13;;;21.77;34.53
68179;BME280;69812;42.632;23.440;2023-09-12T09:03:18;95369.31;;;21.66;34.46
68179;BME280;69812;42.632;23.440;2023-09-12T09:05:45;95361.44;;;21.46;35.67
68179;BME280;69812;42.632;23.440;2023-09-12T09:08:13;95362.34;;;21.38;35.43
68179;BME280;69812;42.632;23.440;2023-09-12T09:10:38;95369.19;;;21.32;34.96
68179;BME280;69812;42.632;23.440;2023-09-12T09:13:04;95356.50;;;21.71;35.23
68179;BME280;69812;42.632;23.440;2023-09-12T09:15:31;95356.72;;;21.89;34.70
68179;BME280;69812;42.632;23.440;2023-09-12T09:17:57;95360.56;;;22.00;34.85
68179;BME280;69812;42.632;23.440;2023-09-12T09:20:28;95361.28;;;21.67;34.31
68179;BME280;69812;42.632;23.440;2023-09-12T09:22:58;95358.75;;;22.01;34.92
68179;BME280;69812;42.632;23.440;2023-09-12T09:25:27;95354.53;;;22.06;35.02
68179;BME280;69812;42.632;23.440;2023-09-12T09:27:53;95340.69;;;22.19;34.27
68179;BME280;69812;42.632;23.440;2023-09-12T09:30:42;95349.16;;;22.34;35.34
68179;BME280;69812;42.632;23.440;2023-09-12T09:33:08;95342.69;;;22.64;34.85
68179;BME280;69812;42.632;23.440;2023-09-12T09:35:34;95341.09;;;22.69;35.91
68179;BME280;69812;42.632;23.440;2023-09-12T09:38:00;95331.84;;;22.73;34.95
68179;BME280;69812;42.632;23.440;2023-09-12T09:40:25;95334.84;;;22.84;34.93
68179;BME280;69812;42.632;23.440;2023-09-12T09:42:54;95329.44;;;22.59;36.33
68179;BME280;69812;42.632;23.440;2023-09-12T09:45:20;95334.59;;;22.92;35.66
68179;BME280;69812;42.632;23.440;2023-09-12T09:47:46;95325.16;;;22.91;34.83
68179;BME280;69812;42.632;23.440;2023-09-12T09:50:14;95314.69;;;22.91;34.86
68179;BME280;69812;42.632;23.440;2023-09-12T09:52:40;95323.88;;;23.13;34.31
68179;BME280;69812;42.632;23.440;2023-09-12T09:55:13;95325.28;;;23.16;33.66
68179;BME280;69812;42.632;23.440;2023-09-12T09:57:39;95322.09;;;23.14;32.96
68179;BME280;69812;42.632;23.440;2023-09-12T10:00:05;95318.25;;;23.16;32.77
68179;BME280;69812;42.632;23.440;2023-09-12T10:02:35;95321.50;;;22.92;33.07
68179;BME280;69812;42.632;23.440;2023-09-12T10:05:04;95315.28;;;22.93;33.71
68179;BME280;69812;42.632;23.440;2023-09-12T10:07:35;95308.44;;;23.05;33.39
68179;BME280;69812;42.632;23.440;2023-09-12T10:10:04;95300.94;;;23.15;34.71
68179;BME280;69812;42.632;23.440;2023-09-12T10:12:35;95313.38;;;23.27;34.26
68179;BME280;69812;42.632;23.440;2023-09-12T10:15:01;95289.53;;;23.42;34.27
68179;BME280;69812;42.632;23.440;2023-09-12T10:17:31;95297.41;;;23.80;33.02
68179;BME280;69812;42.632;23.440;2023-09-12T10:20:03;95295.97;;;23.84;33.31
68179;BME280;69812;42.632;23.440;2023-09-12T10:22:39;95293.78;;;23.74;33.18
68179;BME280;69812;42.632;23.440;2023-09-12T10:25:06;95289.69;;;23.85;32.09
68179;BME280;69812;42.632;23.440;2023-09-12T10:27:32;95290.34;;;23.74;32.40
68179;BME280;69812;42.632;23.440;2023-09-12T10:30:01;95287.53;;;23.82;34.23
68179;BME280;69812;42.632;23.440;2023-09-12T10:32:33;95285.94;;;24.06;32.32
68179;BME280;69812;42.632;23.440;2023-09-12T10:34:59;95277.69;;;24.03;32.66
68179;BME280;69812;42.632;23.440;2023-09-12T10:37:26;95275.53;;;24.18;33.04
68179;BME280;69812;42.632;23.440;2023-09-12T10:39:55;95279.28;;;24.29;33.30
68179;BME280;69812;42.632;23.440;2023-09-12T10:42:26;95269.22;;;24.26;32.90
68179;BME280;69812;42.632;23.440;2023-09-12T10:44:54;95275.09;;;24.46;31.95
68179;BME280;69812;42.632;23.440;2023-09-12T10:47:20;95276.44;;;24.30;31.95
68179;BME280;69812;42.632;23.440;2023-09-12T10:49:48;95267.34;;;24.33;31.81
68179;BME280;69812;42.632;23.440;2023-09-12T10:52:27;95267.06;;;24.41;31.73
68179;BME280;69812;42.632;23.440;2023-09-12T10:54:53;95266.63;;;24.51;31.46
68179;BME280;69812;42.632;23.440;2023-09-12T10:57:19;95258.75;;;24.51;31.46
68179;BME280;69812;42.632;23.440;2023-09-12T11:04:57;95243.19;;;25.05;31.09
68179;BME280;69812;42.632;23.440;2023-09-12T11:12:38;95239.53;;;25.24;30.11
68179;BME280;69812;42.632;23.440;2023-09-12T11:15:04;95231.31;;;25.20;31.27
68179;BME280;69812;42.632;23.440;2023-09-12T11:17:40;95233.31;;;25.37;29.49
68179;BME280;69812;42.632;23.440;2023-09-12T11:20:09;95231.56;;;25.31;30.31
68179;BME280;69812;42.632;23.440;2023-09-12T11:22:38;95225.59;;;25.42;30.54
68179;BME280;69812;42.632;23.440;2023-09-12T11:25:25;95227.63;;;25.40;29.98
68179;BME280;69812;42.632;23.440;2023-09-12T11:30:26;95221.00;;;25.19;29.41
68179;BME280;69812;42.632;23.440;2023-09-12T11:32:53;95219.38;;;25.36;28.06
68179;BME280;69812;42.632;23.440;2023-09-12T11:35:24;95219.34;;;25.25;27.94
68179;BME280;69812;42.632;23.440;2023-09-12T11:37:51;95206.38;;;25.41;28.68
68179;BME280;69812;42.632;23.440;2023-09-12T11:40:25;95208.47;;;25.51;27.31
68179;BME280;69812;42.632;23.440;2023-09-12T11:42:50;95209.78;;;25.72;27.46
68179;BME280;69812;42.632;23.440;2023-09-12T11:45:20;95207.28;;;25.89;28.54
68179;BME280;69812;42.632;23.440;2023-09-12T11:47:46;95202.78;;;25.78;27.48
68179;BME280;69812;42.632;23.440;2023-09-12T11:50:34;95209.16;;;26.00;26.48
68179;BME280;69812;42.632;23.440;2023-09-12T11:53:10;95200.69;;;25.98;26.91
68179;BME280;69812;42.632;23.440;2023-09-12T11:56:08;95197.94;;;26.29;25.95
68179;BME280;69812;42.632;23.440;2023-09-12T11:58:34;95186.50;;;26.23;26.58
68179;BME280;69812;42.632;23.440;2023-09-12T12:01:00;95195.25;;;26.52;26.40
68179;BME280;69812;42.632;23.440;2023-09-12T12:03:26;95197.09;;;26.52;26.57
68179;BME280;69812;42.632;23.440;2023-09-12T12:05:54;95195.81;;;26.54;26.46
68179;BME280;69812;42.632;23.440;2023-09-12T12:08:20;95190.81;;;26.41;24.88
68179;BME280;69812;42.632;23.440;2023-09-12T12:10:54;95195.38;;;26.46;25.36
68179;BME280;69812;42.632;23.440;2023-09-12T12:13:23;95184.88;;;26.34;25.66
68179;BME280;69812;42.632;23.440;2023-09-12T12:15:48;95187.50;;;26.46;26.31
68179;BME280;69812;42.632;23.440;2023-09-12T12:18:17;95192.56;;;26.59;25.36
68179;BME280;69812;42.632;23.440;2023-09-12T12:20:42;95174.25;;;26.40;25.17
68179;BME280;69812;42.632;23.440;2023-09-12T12:23:08;95184.41;;;26.49;25.71
68179;BME280;69812;42.632;23.440;2023-09-12T12:25:34;95187.38;;;26.64;25.65
68179;BME280;69812;42.632;23.440;2023-09-12T12:28:03;95180.50;;;26.75;25.16
68179;BME280;69812;42.632;23.440;2023-09-12T12:30:35;95174.88;;;26.71;24.68
68179;BME280;69812;42.632;23.440;2023-09-12T12:33:07;95181.78;;;26.60;25.08
68179;BME280;69812;42.632;23.440;2023-09-12T12:35:32;95176.81;;;26.76;24.75
68179;BME280;69812;42.632;23.440;2023-09-12T12:37:58;95174.47;;;26.91;26.26
68179;BME280;69812;42.632;23.440;2023-09-12T12:40:26;95175.53;;;26.90;25.11
68179;BME280;69812;42.632;23.440;2023-09-12T12:42:51;95177.81;;;26.87;25.24
68179;BME280;69812;42.632;23.440;2023-09-12T12:45:21;95173.41;;;27.04;25.81
68179;BME280;69812;42.632;23.440;2023-09-12T12:47:57;95170.81;;;27.21;24.62
68179;BME280;69812;42.632;23.440;2023-09-12T12:50:23;95172.16;;;27.07;24.91
68179;BME280;69812;42.632;23.440;2023-09-12T12:52:49;95157.00;;;27.14;24.36
68179;BME280;69812;42.632;23.440;2023-09-12T12:55:15;95162.28;;;27.02;25.24
68179;BME280;69812;42.632;23.440;2023-09-12T12:57:43;95159.16;;;26.88;25.16
68179;BME280;69812;42.632;23.440;2023-09-12T13:00:18;95159.09;;;27.00;25.21
68179;BME280;69812;42.632;23.440;2023-09-12T13:02:46;95156.59;;;26.93;24.88
68179;BME280;69812;42.632;23.440;2023-09-12T13:05:29;95161.88;;;26.93;24.32
68179;BME280;69812;42.632;23.440;2023-09-12T13:07:56;95157.88;;;26.91;25.21
68179;BME280;69812;42.632;23.440;2023-09-12T13:10:22;95163.84;;;26.86;24.75
68179;BME280;69812;42.632;23.440;2023-09-12T13:12:48;95156.19;;;26.84;24.90
68179;BME280;69812;42.632;23.440;2023-09-12T13:15:14;95154.03;;;26.81;24.54
68179;BME280;69812;42.632;23.440;2023-09-12T13:17:40;95163.25;;;26.96;25.34
68179;BME280;69812;42.632;23.440;2023-09-12T13:20:06;95156.81;;;27.03;25.24
68179;BME280;69812;42.632;23.440;2023-09-12T13:22:33;95155.53;;;27.06;24.95
68179;BME280;69812;42.632;23.440;2023-09-12T13:24:59;95151.81;;;27.19;25.23
68179;BME280;69812;42.632;23.440;2023-09-12T13:27:24;95150.97;;;27.01;25.48
68179;BME280;69812;42.632;23.440;2023-09-12T13:29:50;95149.13;;;27.02;25.33
68179;BME280;69812;42.632;23.440;2023-09-12T13:32:15;95142.50;;;26.99;25.69
68179;BME280;69812;42.632;23.440;2023-09-12T13:34:41;95148.69;;;27.05;25.61
68179;BME280;69812;42.632;23.440;2023-09-12T13:37:09;95152.28;;;27.16;24.86
68179;BME280;69812;42.632;23.440;2023-09-12T13:39:34;95147.78;;;26.99;24.84
68179;BME280;69812;42.632;23.440;2023-09-12T13:42:00;95145.75;;;27.18;24.67
68179;BME280;69812;42.632;23.440;2023-09-12T13:44:28;95147.31;;;27.19;25.33
68179;BME280;69812;42.632;23.440;2023-09-12T13:46:53;95149.44;;;27.17;24.72
68179;BME280;69812;42.632;23.440;2023-09-12T13:49:19;95147.47;;;27.24;25.04
68179;BME280;69812;42.632;23.440;2023-09-12T13:51:44;95150.41;;;27.28;24.58
68179;BME280;69812;42.632;23.440;2023-09-12T13:54:10;95149.16;;;27.19;24.59